sensor_id;sensor_type;location;lat;lon;timestamp;P1;durP1;ratioP1;P2;durP2;ratioP2
54947;SDS011;41113;41.882;12.530;2022-10-26T00:02:22;44.83;;;24.20;;
54947;SDS011;41113;41.882;12.530;2022-10-26T00:04:47;43.45;;;23.98;;
54947;SDS011;41113;41.882;12.530;2022-10-26T00:07:12;40.58;;;21.95;;
54947;SDS011;41113;41.882;12.530;2022-10-26T00:09:38;45.38;;;21.23;;
54947;SDS011;41113;41.882;12.530;2022-10-26T00:12:03;40.90;;;21.23;;
54947;SDS011;41113;41.882;12.530;2022-10-26T00:14:29;41.50;;;21.38;;
54947;SDS011;41113;41.882;12.530;2022-10-26T00:16:54;44.40;;;21.73;;
54947;SDS011;41113;41.882;12.530;2022-10-26T00:19:19;48.67;;;21.92;;
54947;SDS011;41113;41.882;12.530;2022-10-26T00:21:45;49.00;;;21.40;;
54947;SDS011;41113;41.882;12.530;2022-10-26T00:24:10;42.22;;;22.73;;
54947;SDS011;41113;41.882;12.530;2022-10-26T00:26:36;40.17;;;22.77;;
54947;SDS011;41113;41.882;12.530;2022-10-26T00:29:02;38.88;;;20.15;;
54947;SDS011;41113;41.882;12.530;2022-10-26T00:31:28;36.63;;;20.55;;
54947;SDS011;41113;41.882;12.530;2022-10-26T00:33:54;41.88;;;20.38;;
54947;SDS011;41113;41.882;12.530;2022-10-26T00:36:21;46.13;;;19.98;;
54947;SDS011;41113;41.882;12.530;2022-10-26T00:38:51;40.50;;;19.38;;
54947;SDS011;41113;41.882;12.530;2022-10-26T00:41:21;44.90;;;19.55;;
54947;SDS011;41113;41.882;12.530;2022-10-26T00:43:48;46.08;;;18.70;;
54947;SDS011;41113;41.882;12.530;2022-10-26T00:46:20;40.22;;;17.98;;
54947;SDS011;41113;41.882;12.530;2022-10-26T00:48:51;45.47;;;19.30;;
54947;SDS011;41113;41.882;12.530;2022-10-26T00:51:22;47.33;;;18.25;;
54947;SDS011;41113;41.882;12.530;2022-10-26T00:53:48;41.67;;;16.98;;
54947;SDS011;41113;41.882;12.530;2022-10-26T00:56:15;41.28;;;18.77;;
54947;SDS011;41113;41.882;12.530;2022-10-26T00:58:41;42.83;;;18.23;;
54947;SDS011;41113;41.882;12.530;2022-10-26T01:01:07;36.92;;;18.25;;
54947;SDS011;41113;41.882;12.530;2022-10-26T01:03:33;37.72;;;17.40;;
54947;SDS011;41113;41.882;12.530;2022-10-26T01:06:01;37.47;;;17.35;;
54947;SDS011;41113;41.882;12.530;2022-10-26T01:08:28;40.00;;;18.30;;
54947;SDS011;41113;41.882;12.530;2022-10-26T01:10:55;34.40;;;17.70;;
54947;SDS011;41113;41.882;12.530;2022-10-26T01:13:22;32.25;;;17.05;;
54947;SDS011;41113;41.882;12.530;2022-10-26T01:24:21;43.70;;;19.70;;
54947;SDS011;41113;41.882;12.530;2022-10-26T01:29:43;34.42;;;16.35;;
54947;SDS011;41113;41.882;12.530;2022-10-26T01:37:24;38.70;;;18.20;;
54947;SDS011;41113;41.882;12.530;2022-10-26T01:39:53;38.05;;;17.50;;
54947;SDS011;41113;41.882;12.530;2022-10-26T01:42:26;35.78;;;17.45;;
54947;SDS011;41113;41.882;12.530;2022-10-26T01:44:58;45.20;;;18.83;;
54947;SDS011;41113;41.882;12.530;2022-10-26T01:47:27;37.47;;;19.88;;
54947;SDS011;41113;41.882;12.530;2022-10-26T01:49:55;44.25;;;19.33;;
54947;SDS011;41113;41.882;12.530;2022-10-26T01:52:23;42.78;;;18.35;;
54947;SDS011;41113;41.882;12.530;2022-10-26T01:54:49;46.60;;;20.67;;
54947;SDS011;41113;41.882;12.530;2022-10-26T01:57:15;37.78;;;18.90;;
54947;SDS011;41113;41.882;12.530;2022-10-26T02:16:25;29.85;;;16.35;;
54947;SDS011;41113;41.882;12.530;2022-10-26T02:19:01;31.55;;;16.27;;
54947;SDS011;41113;41.882;12.530;2022-10-26T02:21:34;41.40;;;17.88;;
54947;SDS011;41113;41.882;12.530;2022-10-26T02:24:03;35.78;;;17.15;;
54947;SDS011;41113;41.882;12.530;2022-10-26T02:26:32;41.55;;;18.85;;
54947;SDS011;41113;41.882;12.530;2022-10-26T02:29:01;42.90;;;18.45;;
54947;SDS011;41113;41.882;12.530;2022-10-26T02:31:30;38.08;;;17.75;;
54947;SDS011;41113;41.882;12.530;2022-10-26T02:33:58;36.03;;;17.88;;
54947;SDS011;41113;41.882;12.530;2022-10-26T02:36:27;42.30;;;20.27;;
54947;SDS011;41113;41.882;12.530;2022-10-26T02:38:57;43.72;;;19.70;;
54947;SDS011;41113;41.882;12.530;2022-10-26T02:41:24;40.42;;;19.17;;
54947;SDS011;41113;41.882;12.530;2022-10-26T02:43:55;37.43;;;19.43;;
54947;SDS011;41113;41.882;12.530;2022-10-26T02:46:28;43.17;;;20.00;;
54947;SDS011;41113;41.882;12.530;2022-10-26T02:48:54;36.22;;;20.15;;
54947;SDS011;41113;41.882;12.530;2022-10-26T02:59:16;41.35;;;19.67;;
54947;SDS011;41113;41.882;12.530;2022-10-26T03:01:45;41.42;;;19.80;;
54947;SDS011;41113;41.882;12.530;2022-10-26T03:04:11;37.70;;;19.30;;
54947;SDS011;41113;41.882;12.530;2022-10-26T03:06:37;41.15;;;18.77;;
54947;SDS011;41113;41.882;12.530;2022-10-26T03:09:02;43.13;;;20.02;;
54947;SDS011;41113;41.882;12.530;2022-10-26T03:11:27;40.53;;;18.85;;
54947;SDS011;41113;41.882;12.530;2022-10-26T03:13:53;38.53;;;18.73;;
54947;SDS011;41113;41.882;12.530;2022-10-26T03:16:19;41.78;;;18.52;;
54947;SDS011;41113;41.882;12.530;2022-10-26T03:18:44;39.72;;;18.33;;
54947;SDS011;41113;41.882;12.530;2022-10-26T03:21:09;38.50;;;17.15;;
54947;SDS011;41113;41.882;12.530;2022-10-26T03:23:35;38.45;;;17.33;;
54947;SDS011;41113;41.882;12.530;2022-10-26T03:26:00;43.40;;;18.60;;
54947;SDS011;41113;41.882;12.530;2022-10-26T03:28:26;42.20;;;17.10;;
54947;SDS011;41113;41.882;12.530;2022-10-26T03:30:51;38.63;;;17.17;;
54947;SDS011;41113;41.882;12.530;2022-10-26T03:33:17;33.53;;;16.23;;
54947;SDS011;41113;41.882;12.530;2022-10-26T03:35:42;40.38;;;16.98;;
54947;SDS011;41113;41.882;12.530;2022-10-26T03:38:08;41.03;;;16.42;;
54947;SDS011;41113;41.882;12.530;2022-10-26T03:40:34;36.60;;;17.02;;
54947;SDS011;41113;41.882;12.530;2022-10-26T03:43:00;48.35;;;17.42;;
54947;SDS011;41113;41.882;12.530;2022-10-26T03:45:26;36.70;;;16.25;;
54947;SDS011;41113;41.882;12.530;2022-10-26T03:47:51;34.95;;;15.30;;
54947;SDS011;41113;41.882;12.530;2022-10-26T03:50:17;41.70;;;16.52;;
54947;SDS011;41113;41.882;12.530;2022-10-26T03:52:45;40.53;;;15.77;;
54947;SDS011;41113;41.882;12.530;2022-10-26T03:55:11;42.83;;;16.00;;
54947;SDS011;41113;41.882;12.530;2022-10-26T03:57:40;41.83;;;16.90;;
54947;SDS011;41113;41.882;12.530;2022-10-26T04:00:06;29.70;;;13.95;;
54947;SDS011;41113;41.882;12.530;2022-10-26T04:02:33;39.53;;;15.82;;
54947;SDS011;41113;41.882;12.530;2022-10-26T04:04:58;50.90;;;16.98;;
54947;SDS011;41113;41.882;12.530;2022-10-26T04:07:23;40.20;;;16.50;;
54947;SDS011;41113;41.882;12.530;2022-10-26T04:09:49;37.85;;;15.52;;
54947;SDS011;41113;41.882;12.530;2022-10-26T04:12:14;44.97;;;18.95;;
54947;SDS011;41113;41.882;12.530;2022-10-26T04:14:39;39.67;;;17.83;;
54947;SDS011;41113;41.882;12.530;2022-10-26T04:17:05;41.22;;;19.13;;
54947;SDS011;41113;41.882;12.530;2022-10-26T04:19:30;45.03;;;19.73;;
54947;SDS011;41113;41.882;12.530;2022-10-26T04:21:56;55.00;;;23.20;;
54947;SDS011;41113;41.882;12.530;2022-10-26T04:24:21;50.00;;;23.70;;
54947;SDS011;41113;41.882;12.530;2022-10-26T04:26:47;56.08;;;23.10;;
54947;SDS011;41113;41.882;12.530;2022-10-26T04:29:12;58.08;;;23.17;;
54947;SDS011;41113;41.882;12.530;2022-10-26T04:31:38;52.42;;;22.20;;
54947;SDS011;41113;41.882;12.530;2022-10-26T04:34:03;53.97;;;21.25;;
54947;SDS011;41113;41.882;12.530;2022-10-26T04:36:29;50.00;;;22.05;;
54947;SDS011;41113;41.882;12.530;2022-10-26T04:38:55;41.53;;;20.88;;
54947;SDS011;41113;41.882;12.530;2022-10-26T04:41:20;44.85;;;20.60;;
54947;SDS011;41113;41.882;12.530;2022-10-26T04:43:45;47.13;;;22.10;;
54947;SDS011;41113;41.882;12.530;2022-10-26T04:46:11;52.88;;;21.10;;
54947;SDS011;41113;41.882;12.530;2022-10-26T04:48:38;48.85;;;23.30;;
54947;SDS011;41113;41.882;12.530;2022-10-26T04:51:03;52.95;;;24.67;;
54947;SDS011;41113;41.882;12.530;2022-10-26T04:53:29;46.75;;;21.77;;
54947;SDS011;41113;41.882;12.530;2022-10-26T04:55:55;50.33;;;23.58;;
54947;SDS011;41113;41.882;12.530;2022-10-26T04:58:22;46.55;;;23.25;;
54947;SDS011;41113;41.882;12.530;2022-10-26T05:00:47;58.75;;;24.77;;
54947;SDS011;41113;41.882;12.530;2022-10-26T05:03:13;58.13;;;24.75;;
54947;SDS011;41113;41.882;12.530;2022-10-26T05:05:39;46.83;;;23.38;;
54947;SDS011;41113;41.882;12.530;2022-10-26T05:08:04;43.20;;;21.65;;
54947;SDS011;41113;41.882;12.530;2022-10-26T05:10:30;56.00;;;23.98;;
54947;SDS011;41113;41.882;12.530;2022-10-26T05:12:56;57.88;;;24.42;;
54947;SDS011;41113;41.882;12.530;2022-10-26T05:15:24;52.25;;;23.95;;
54947;SDS011;41113;41.882;12.530;2022-10-26T05:17:54;60.05;;;24.30;;
54947;SDS011;41113;41.882;12.530;2022-10-26T05:20:24;52.88;;;23.23;;
54947;SDS011;41113;41.882;12.530;2022-10-26T05:22:58;53.83;;;24.63;;
54947;SDS011;41113;41.882;12.530;2022-10-26T05:25:28;52.22;;;22.20;;
54947;SDS011;41113;41.882;12.530;2022-10-26T05:27:59;51.38;;;22.00;;
54947;SDS011;41113;41.882;12.530;2022-10-26T05:30:26;45.72;;;21.45;;
54947;SDS011;41113;41.882;12.530;2022-10-26T05:32:59;45.60;;;20.83;;
54947;SDS011;41113;41.882;12.530;2022-10-26T05:35:27;46.53;;;19.92;;
54947;SDS011;41113;41.882;12.530;2022-10-26T05:37:53;41.92;;;19.63;;
54947;SDS011;41113;41.882;12.530;2022-10-26T05:40:19;49.63;;;21.50;;
54947;SDS011;41113;41.882;12.530;2022-10-26T05:42:44;39.03;;;19.55;;
54947;SDS011;41113;41.882;12.530;2022-10-26T05:45:10;43.28;;;19.25;;
54947;SDS011;41113;41.882;12.530;2022-10-26T05:47:40;49.45;;;19.45;;
54947;SDS011;41113;41.882;12.530;2022-10-26T05:50:06;48.13;;;23.50;;
54947;SDS011;41113;41.882;12.530;2022-10-26T05:52:41;49.80;;;24.65;;
54947;SDS011;41113;41.882;12.530;2022-10-26T05:55:14;46.95;;;21.48;;
54947;SDS011;41113;41.882;12.530;2022-10-26T05:57:42;43.58;;;18.88;;
54947;SDS011;41113;41.882;12.530;2022-10-26T06:00:09;40.10;;;20.70;;
54947;SDS011;41113;41.882;12.530;2022-10-26T06:02:47;40.90;;;19.08;;
54947;SDS011;41113;41.882;12.530;2022-10-26T06:05:21;41.88;;;21.25;;
54947;SDS011;41113;41.882;12.530;2022-10-26T06:07:50;44.25;;;22.05;;
54947;SDS011;41113;41.882;12.530;2022-10-26T06:10:16;46.70;;;20.80;;
54947;SDS011;41113;41.882;12.530;2022-10-26T06:12:43;41.45;;;21.45;;
54947;SDS011;41113;41.882;12.530;2022-10-26T06:15:12;47.17;;;22.25;;
54947;SDS011;41113;41.882;12.530;2022-10-26T06:17:47;44.60;;;21.73;;
54947;SDS011;41113;41.882;12.530;2022-10-26T06:20:40;42.80;;;21.60;;
54947;SDS011;41113;41.882;12.530;2022-10-26T06:25:44;50.15;;;22.60;;
54947;SDS011;41113;41.882;12.530;2022-10-26T06:30:48;52.42;;;25.25;;
54947;SDS011;41113;41.882;12.530;2022-10-26T06:33:14;54.95;;;24.90;;
54947;SDS011;41113;41.882;12.530;2022-10-26T06:38:13;51.78;;;24.65;;
54947;SDS011;41113;41.882;12.530;2022-10-26T06:40:41;49.53;;;23.70;;
54947;SDS011;41113;41.882;12.530;2022-10-26T06:43:16;51.42;;;24.15;;
54947;SDS011;41113;41.882;12.530;2022-10-26T06:45:48;51.97;;;24.50;;
54947;SDS011;41113;41.882;12.530;2022-10-26T06:48:29;42.35;;;22.08;;
54947;SDS011;41113;41.882;12.530;2022-10-26T06:51:03;44.22;;;22.92;;
54947;SDS011;41113;41.882;12.530;2022-10-26T06:53:40;45.83;;;22.50;;
54947;SDS011;41113;41.882;12.530;2022-10-26T06:56:12;44.08;;;22.48;;
54947;SDS011;41113;41.882;12.530;2022-10-26T06:58:38;44.13;;;21.27;;
54947;SDS011;41113;41.882;12.530;2022-10-26T07:01:09;61.65;;;25.90;;
54947;SDS011;41113;41.882;12.530;2022-10-26T07:03:36;55.28;;;24.48;;
54947;SDS011;41113;41.882;12.530;2022-10-26T07:06:22;52.78;;;23.77;;
54947;SDS011;41113;41.882;12.530;2022-10-26T07:08:48;49.10;;;21.48;;
54947;SDS011;41113;41.882;12.530;2022-10-26T07:11:14;44.70;;;21.70;;
54947;SDS011;41113;41.882;12.530;2022-10-26T07:13:39;41.47;;;19.70;;
54947;SDS011;41113;41.882;12.530;2022-10-26T07:16:05;38.63;;;18.42;;
54947;SDS011;41113;41.882;12.530;2022-10-26T07:18:30;44.03;;;21.70;;
54947;SDS011;41113;41.882;12.530;2022-10-26T07:20:57;35.40;;;18.83;;
54947;SDS011;41113;41.882;12.530;2022-10-26T07:23:22;42.33;;;20.60;;
54947;SDS011;41113;41.882;12.530;2022-10-26T07:25:48;41.28;;;18.85;;
54947;SDS011;41113;41.882;12.530;2022-10-26T07:28:14;45.90;;;20.73;;
54947;SDS011;41113;41.882;12.530;2022-10-26T07:30:39;44.38;;;22.10;;
54947;SDS011;41113;41.882;12.530;2022-10-26T07:33:08;46.45;;;20.65;;
54947;SDS011;41113;41.882;12.530;2022-10-26T07:35:36;43.50;;;20.15;;
54947;SDS011;41113;41.882;12.530;2022-10-26T07:38:01;41.58;;;20.83;;
54947;SDS011;41113;41.882;12.530;2022-10-26T07:40:28;42.80;;;21.92;;
54947;SDS011;41113;41.882;12.530;2022-10-26T07:42:58;39.85;;;21.58;;
54947;SDS011;41113;41.882;12.530;2022-10-26T07:45:25;32.50;;;18.65;;
54947;SDS011;41113;41.882;12.530;2022-10-26T07:47:51;33.58;;;17.95;;
54947;SDS011;41113;41.882;12.530;2022-10-26T07:50:16;29.77;;;16.85;;
54947;SDS011;41113;41.882;12.530;2022-10-26T07:52:42;34.00;;;18.08;;
54947;SDS011;41113;41.882;12.530;2022-10-26T07:55:08;34.55;;;20.20;;
54947;SDS011;41113;41.882;12.530;2022-10-26T07:57:34;35.10;;;20.33;;
54947;SDS011;41113;41.882;12.530;2022-10-26T08:00:00;40.05;;;19.23;;
54947;SDS011;41113;41.882;12.530;2022-10-26T08:02:26;43.28;;;20.45;;
54947;SDS011;41113;41.882;12.530;2022-10-26T08:04:51;37.03;;;19.92;;
54947;SDS011;41113;41.882;12.530;2022-10-26T08:07:17;35.40;;;19.42;;
54947;SDS011;41113;41.882;12.530;2022-10-26T08:09:42;34.47;;;19.30;;
54947;SDS011;41113;41.882;12.530;2022-10-26T08:12:07;38.05;;;19.35;;
54947;SDS011;41113;41.882;12.530;2022-10-26T08:14:33;39.75;;;20.48;;
54947;SDS011;41113;41.882;12.530;2022-10-26T08:16:58;33.95;;;17.85;;
54947;SDS011;41113;41.882;12.530;2022-10-26T08:19:23;27.20;;;16.27;;
54947;SDS011;41113;41.882;12.530;2022-10-26T08:21:49;27.92;;;17.50;;
54947;SDS011;41113;41.882;12.530;2022-10-26T08:24:14;30.42;;;16.70;;
54947;SDS011;41113;41.882;12.530;2022-10-26T08:26:40;34.03;;;15.60;;
54947;SDS011;41113;41.882;12.530;2022-10-26T08:29:05;32.67;;;16.83;;
54947;SDS011;41113;41.882;12.530;2022-10-26T08:31:31;30.25;;;16.25;;
54947;SDS011;41113;41.882;12.530;2022-10-26T08:33:57;38.65;;;17.20;;
54947;SDS011;41113;41.882;12.530;2022-10-26T08:36:24;35.53;;;17.95;;
54947;SDS011;41113;41.882;12.530;2022-10-26T08:38:51;35.47;;;16.42;;
54947;SDS011;41113;41.882;12.530;2022-10-26T08:41:16;30.45;;;14.75;;
54947;SDS011;41113;41.882;12.530;2022-10-26T08:43:51;37.47;;;15.57;;
54947;SDS011;41113;41.882;12.530;2022-10-26T08:46:22;31.20;;;14.07;;
54947;SDS011;41113;41.882;12.530;2022-10-26T08:48:53;33.20;;;15.95;;
54947;SDS011;41113;41.882;12.530;2022-10-26T08:51:23;38.22;;;15.52;;
54947;SDS011;41113;41.882;12.530;2022-10-26T08:54:37;35.00;;;14.45;;
54947;SDS011;41113;41.882;12.530;2022-10-26T09:00:09;30.52;;;14.05;;
54947;SDS011;41113;41.882;12.530;2022-10-26T09:02:39;33.78;;;14.15;;
54947;SDS011;41113;41.882;12.530;2022-10-26T09:05:08;35.83;;;14.82;;
54947;SDS011;41113;41.882;12.530;2022-10-26T09:07:46;29.92;;;13.23;;
54947;SDS011;41113;41.882;12.530;2022-10-26T09:13:07;30.20;;;13.10;;
54947;SDS011;41113;41.882;12.530;2022-10-26T09:16:05;33.40;;;14.98;;
54947;SDS011;41113;41.882;12.530;2022-10-26T09:26:49;31.35;;;13.13;;
54947;SDS011;41113;41.882;12.530;2022-10-26T09:29:31;33.22;;;13.73;;
54947;SDS011;41113;41.882;12.530;2022-10-26T09:32:02;24.88;;;12.73;;
54947;SDS011;41113;41.882;12.530;2022-10-26T09:37:18;35.22;;;12.82;;
54947;SDS011;41113;41.882;12.530;2022-10-26T09:42:42;28.25;;;11.95;;
54947;SDS011;41113;41.882;12.530;2022-10-26T09:45:29;34.45;;;12.95;;
54947;SDS011;41113;41.882;12.530;2022-10-26T09:48:03;27.55;;;12.40;;
54947;SDS011;41113;41.882;12.530;2022-10-26T09:50:35;30.02;;;12.75;;
54947;SDS011;41113;41.882;12.530;2022-10-26T09:53:03;23.63;;;12.25;;
54947;SDS011;41113;41.882;12.530;2022-10-26T09:55:30;24.85;;;11.73;;
54947;SDS011;41113;41.882;12.530;2022-10-26T09:57:58;23.05;;;10.85;;
54947;SDS011;41113;41.882;12.530;2022-10-26T10:00:27;25.10;;;11.15;;
54947;SDS011;41113;41.882;12.530;2022-10-26T10:02:54;24.48;;;11.30;;
54947;SDS011;41113;41.882;12.530;2022-10-26T10:07:50;34.85;;;12.15;;
54947;SDS011;41113;41.882;12.530;2022-10-26T10:10:17;33.33;;;13.27;;
54947;SDS011;41113;41.882;12.530;2022-10-26T10:12:47;29.02;;;13.43;;
54947;SDS011;41113;41.882;12.530;2022-10-26T10:15:20;25.60;;;12.07;;
54947;SDS011;41113;41.882;12.530;2022-10-26T10:17:48;27.38;;;12.80;;
54947;SDS011;41113;41.882;12.530;2022-10-26T10:20:22;37.50;;;13.45;;
54947;SDS011;41113;41.882;12.530;2022-10-26T10:23:01;24.42;;;11.65;;
54947;SDS011;41113;41.882;12.530;2022-10-26T10:25:31;36.25;;;14.63;;
54947;SDS011;41113;41.882;12.530;2022-10-26T10:27:59;26.65;;;12.48;;
54947;SDS011;41113;41.882;12.530;2022-10-26T10:30:29;29.63;;;13.63;;
54947;SDS011;41113;41.882;12.530;2022-10-26T10:33:03;30.20;;;12.60;;
54947;SDS011;41113;41.882;12.530;2022-10-26T10:35:30;27.90;;;12.38;;
54947;SDS011;41113;41.882;12.530;2022-10-26T10:37:55;35.95;;;13.80;;
54947;SDS011;41113;41.882;12.530;2022-10-26T10:40:22;35.00;;;13.75;;
54947;SDS011;41113;41.882;12.530;2022-10-26T10:42:50;35.33;;;13.63;;
54947;SDS011;41113;41.882;12.530;2022-10-26T10:47:56;27.23;;;11.77;;
54947;SDS011;41113;41.882;12.530;2022-10-26T10:50:27;36.17;;;13.05;;
54947;SDS011;41113;41.882;12.530;2022-10-26T10:53:10;28.58;;;11.38;;
54947;SDS011;41113;41.882;12.530;2022-10-26T10:55:38;30.90;;;12.13;;
54947;SDS011;41113;41.882;12.530;2022-10-26T10:58:22;33.45;;;13.95;;
54947;SDS011;41113;41.882;12.530;2022-10-26T11:00:54;33.10;;;14.20;;
54947;SDS011;41113;41.882;12.530;2022-10-26T11:06:08;32.65;;;13.82;;
54947;SDS011;41113;41.882;12.530;2022-10-26T11:08:45;31.88;;;12.95;;
54947;SDS011;41113;41.882;12.530;2022-10-26T11:14:05;37.03;;;13.27;;
54947;SDS011;41113;41.882;12.530;2022-10-26T11:16:34;23.77;;;11.52;;
54947;SDS011;41113;41.882;12.530;2022-10-26T11:19:19;38.28;;;14.00;;
54947;SDS011;41113;41.882;12.530;2022-10-26T11:21:51;31.15;;;12.23;;
54947;SDS011;41113;41.882;12.530;2022-10-26T11:24:27;30.10;;;12.00;;
54947;SDS011;41113;41.882;12.530;2022-10-26T11:27:03;36.97;;;13.15;;
54947;SDS011;41113;41.882;12.530;2022-10-26T11:35:17;26.75;;;11.80;;
54947;SDS011;41113;41.882;12.530;2022-10-26T11:40:21;37.35;;;12.77;;
54947;SDS011;41113;41.882;12.530;2022-10-26T11:45:37;26.95;;;11.60;;
54947;SDS011;41113;41.882;12.530;2022-10-26T11:48:11;33.90;;;12.00;;
54947;SDS011;41113;41.882;12.530;2022-10-26T11:50:47;28.52;;;11.77;;
54947;SDS011;41113;41.882;12.530;2022-10-26T11:53:18;36.92;;;12.02;;
54947;SDS011;41113;41.882;12.530;2022-10-26T11:55:50;32.22;;;11.88;;
54947;SDS011;41113;41.882;12.530;2022-10-26T11:58:18;32.80;;;12.82;;
54947;SDS011;41113;41.882;12.530;2022-10-26T12:00:52;33.53;;;12.52;;
54947;SDS011;41113;41.882;12.530;2022-10-26T12:03:29;31.02;;;12.60;;
54947;SDS011;41113;41.882;12.530;2022-10-26T12:05:59;30.80;;;11.95;;
54947;SDS011;41113;41.882;12.530;2022-10-26T12:11:01;27.05;;;10.75;;
54947;SDS011;41113;41.882;12.530;2022-10-26T12:18:53;31.67;;;11.02;;
54947;SDS011;41113;41.882;12.530;2022-10-26T12:21:26;39.65;;;13.38;;
54947;SDS011;41113;41.882;12.530;2022-10-26T12:34:01;27.33;;;12.38;;
54947;SDS011;41113;41.882;12.530;2022-10-26T12:36:47;31.83;;;12.07;;
54947;SDS011;41113;41.882;12.530;2022-10-26T12:39:34;35.63;;;11.55;;
54947;SDS011;41113;41.882;12.530;2022-10-26T12:46:59;35.20;;;12.57;;
54947;SDS011;41113;41.882;12.530;2022-10-26T12:52:41;26.50;;;11.05;;
54947;SDS011;41113;41.882;12.530;2022-10-26T13:07:06;24.67;;;10.93;;
54947;SDS011;41113;41.882;12.530;2022-10-26T13:09:43;32.28;;;11.93;;
54947;SDS011;41113;41.882;12.530;2022-10-26T13:12:13;37.47;;;11.57;;
54947;SDS011;41113;41.882;12.530;2022-10-26T13:14:40;32.03;;;11.10;;
54947;SDS011;41113;41.882;12.530;2022-10-26T13:17:22;32.17;;;11.63;;
54947;SDS011;41113;41.882;12.530;2022-10-26T13:19:50;20.30;;;8.98;;
54947;SDS011;41113;41.882;12.530;2022-10-26T13:22:21;27.58;;;10.75;;
54947;SDS011;41113;41.882;12.530;2022-10-26T13:32:47;28.65;;;10.70;;
54947;SDS011;41113;41.882;12.530;2022-10-26T13:35:16;27.90;;;9.82;;
54947;SDS011;41113;41.882;12.530;2022-10-26T13:37:44;26.92;;;9.82;;
54947;SDS011;41113;41.882;12.530;2022-10-26T13:40:15;27.60;;;11.10;;
54947;SDS011;41113;41.882;12.530;2022-10-26T13:42:49;22.85;;;10.07;;
54947;SDS011;41113;41.882;12.530;2022-10-26T13:45:27;24.95;;;9.50;;
54947;SDS011;41113;41.882;12.530;2022-10-26T13:50:26;24.75;;;9.82;;
54947;SDS011;41113;41.882;12.530;2022-10-26T13:52:57;26.00;;;9.93;;
54947;SDS011;41113;41.882;12.530;2022-10-26T13:55:27;29.48;;;9.50;;
54947;SDS011;41113;41.882;12.530;2022-10-26T14:00:29;28.63;;;10.80;;
54947;SDS011;41113;41.882;12.530;2022-10-26T14:02:54;25.65;;;10.82;;
54947;SDS011;41113;41.882;12.530;2022-10-26T14:05:20;21.02;;;9.90;;
54947;SDS011;41113;41.882;12.530;2022-10-26T14:07:47;33.35;;;11.50;;
54947;SDS011;41113;41.882;12.530;2022-10-26T14:12:56;29.27;;;10.73;;
54947;SDS011;41113;41.882;12.530;2022-10-26T14:15:29;29.83;;;11.05;;
54947;SDS011;41113;41.882;12.530;2022-10-26T14:17:56;34.30;;;11.35;;
54947;SDS011;41113;41.882;12.530;2022-10-26T14:20:24;24.48;;;11.07;;
54947;SDS011;41113;41.882;12.530;2022-10-26T14:22:52;31.88;;;11.52;;
54947;SDS011;41113;41.882;12.530;2022-10-26T14:25:18;26.35;;;11.23;;
54947;SDS011;41113;41.882;12.530;2022-10-26T14:27:53;27.55;;;10.80;;
54947;SDS011;41113;41.882;12.530;2022-10-26T14:30:32;29.65;;;11.80;;
54947;SDS011;41113;41.882;12.530;2022-10-26T14:32:58;36.40;;;12.37;;
54947;SDS011;41113;41.882;12.530;2022-10-26T14:35:24;33.47;;;11.55;;
54947;SDS011;41113;41.882;12.530;2022-10-26T14:40:34;31.55;;;12.57;;
54947;SDS011;41113;41.882;12.530;2022-10-26T14:43:01;24.13;;;11.07;;
54947;SDS011;41113;41.882;12.530;2022-10-26T14:45:33;30.67;;;11.65;;
54947;SDS011;41113;41.882;12.530;2022-10-26T14:48:00;25.30;;;11.15;;
54947;SDS011;41113;41.882;12.530;2022-10-26T14:50:28;23.13;;;10.82;;
54947;SDS011;41113;41.882;12.530;2022-10-26T14:52:57;27.27;;;12.95;;
54947;SDS011;41113;41.882;12.530;2022-10-26T14:55:27;29.45;;;14.00;;
54947;SDS011;41113;41.882;12.530;2022-10-26T14:58:04;33.15;;;13.65;;
54947;SDS011;41113;41.882;12.530;2022-10-26T15:03:13;391.33;;;257.70;;
54947;SDS011;41113;41.882;12.530;2022-10-26T15:05:50;133.38;;;78.03;;
54947;SDS011;41113;41.882;12.530;2022-10-26T15:11:19;351.65;;;209.93;;
54947;SDS011;41113;41.882;12.530;2022-10-26T15:13:45;251.52;;;145.13;;
54947;SDS011;41113;41.882;12.530;2022-10-26T15:18:48;140.85;;;83.38;;
54947;SDS011;41113;41.882;12.530;2022-10-26T15:23:59;81.03;;;41.50;;
54947;SDS011;41113;41.882;12.530;2022-10-26T15:26:26;128.20;;;73.78;;
54947;SDS011;41113;41.882;12.530;2022-10-26T15:28:53;107.20;;;66.20;;
54947;SDS011;41113;41.882;12.530;2022-10-26T15:36:14;63.33;;;37.03;;
54947;SDS011;41113;41.882;12.530;2022-10-26T15:38:41;94.33;;;60.20;;
54947;SDS011;41113;41.882;12.530;2022-10-26T15:41:21;169.27;;;89.38;;
54947;SDS011;41113;41.882;12.530;2022-10-26T15:43:50;266.48;;;134.80;;
54947;SDS011;41113;41.882;12.530;2022-10-26T15:46:17;388.90;;;210.88;;
54947;SDS011;41113;41.882;12.530;2022-10-26T15:48:46;253.77;;;138.70;;
54947;SDS011;41113;41.882;12.530;2022-10-26T15:51:17;330.17;;;171.05;;
54947;SDS011;41113;41.882;12.530;2022-10-26T15:53:43;149.18;;;86.38;;
54947;SDS011;41113;41.882;12.530;2022-10-26T15:56:12;133.02;;;80.82;;
54947;SDS011;41113;41.882;12.530;2022-10-26T15:58:40;174.10;;;101.05;;
54947;SDS011;41113;41.882;12.530;2022-10-26T16:01:06;124.75;;;76.70;;
54947;SDS011;41113;41.882;12.530;2022-10-26T16:03:31;104.30;;;64.28;;
54947;SDS011;41113;41.882;12.530;2022-10-26T16:05:57;84.38;;;54.40;;
54947;SDS011;41113;41.882;12.530;2022-10-26T16:08:28;84.82;;;52.75;;
54947;SDS011;41113;41.882;12.530;2022-10-26T16:10:58;55.10;;;36.17;;
54947;SDS011;41113;41.882;12.530;2022-10-26T16:13:23;49.78;;;31.02;;
54947;SDS011;41113;41.882;12.530;2022-10-26T16:15:50;41.20;;;24.92;;
54947;SDS011;41113;41.882;12.530;2022-10-26T16:18:15;39.53;;;21.85;;
54947;SDS011;41113;41.882;12.530;2022-10-26T16:20:43;37.65;;;20.83;;
54947;SDS011;41113;41.882;12.530;2022-10-26T16:23:09;38.60;;;19.55;;
54947;SDS011;41113;41.882;12.530;2022-10-26T16:25:41;31.35;;;17.85;;
54947;SDS011;41113;41.882;12.530;2022-10-26T16:28:13;36.22;;;18.05;;
54947;SDS011;41113;41.882;12.530;2022-10-26T16:30:40;35.42;;;17.75;;
54947;SDS011;41113;41.882;12.530;2022-10-26T16:33:05;34.55;;;16.58;;
54947;SDS011;41113;41.882;12.530;2022-10-26T16:35:31;33.00;;;16.08;;
54947;SDS011;41113;41.882;12.530;2022-10-26T16:37:56;30.40;;;15.18;;
54947;SDS011;41113;41.882;12.530;2022-10-26T16:40:22;35.00;;;16.98;;
54947;SDS011;41113;41.882;12.530;2022-10-26T16:42:48;30.05;;;15.02;;
54947;SDS011;41113;41.882;12.530;2022-10-26T16:45:14;26.98;;;15.43;;
54947;SDS011;41113;41.882;12.530;2022-10-26T16:47:46;33.20;;;15.48;;
54947;SDS011;41113;41.882;12.530;2022-10-26T16:50:11;27.60;;;13.82;;
54947;SDS011;41113;41.882;12.530;2022-10-26T16:52:38;28.90;;;14.63;;
54947;SDS011;41113;41.882;12.530;2022-10-26T16:55:04;27.85;;;15.10;;
54947;SDS011;41113;41.882;12.530;2022-10-26T16:57:32;35.67;;;16.23;;
54947;SDS011;41113;41.882;12.530;2022-10-26T16:59:58;32.45;;;16.02;;
54947;SDS011;41113;41.882;12.530;2022-10-26T17:02:24;31.70;;;16.42;;